createdAt,value
2022-12-17T00:02:29.161Z,-1.50
2022-12-17T00:06:49.697Z,-1.50
2022-12-17T00:11:10.391Z,-1.50
2022-12-17T00:15:30.676Z,-1.40
2022-12-17T00:19:51.051Z,-1.40
2022-12-17T00:24:14.851Z,-1.40
2022-12-17T00:28:34.869Z,-1.40
2022-12-17T00:32:55.358Z,-1.50
2022-12-17T00:37:15.757Z,-1.40
2022-12-17T00:41:36.089Z,-1.40
2022-12-17T00:45:56.238Z,-1.40
2022-12-17T00:50:16.623Z,-1.50
2022-12-17T00:54:37.153Z,-1.40
2022-12-17T00:58:57.482Z,-1.40
2022-12-17T01:03:29.365Z,-1.40
2022-12-17T01:07:49.710Z,-1.40
2022-12-17T01:12:09.706Z,-1.50
2022-12-17T01:16:32.773Z,-1.50
2022-12-17T01:20:53.060Z,-1.50
2022-12-17T01:25:14.384Z,-1.50
2022-12-17T01:29:35.181Z,-1.40
2022-12-17T01:33:55.509Z,-1.40
2022-12-17T01:38:15.993Z,-1.40
2022-12-17T01:42:36.540Z,-1.40
2022-12-17T01:47:00.978Z,-1.40
2022-12-17T01:51:21.255Z,-1.40
2022-12-17T01:55:41.433Z,-1.50
2022-12-17T02:00:16.179Z,-1.50
2022-12-17T02:04:36.272Z,-1.50
2022-12-17T02:09:25.287Z,-1.50
2022-12-17T02:13:58.532Z,-1.50
2022-12-17T02:18:21.405Z,-1.60
2022-12-17T02:23:18.203Z,-1.50
2022-12-17T02:27:38.812Z,-1.50
2022-12-17T02:32:00.646Z,-1.50
2022-12-17T02:36:24.594Z,-1.50
2022-12-17T02:40:44.802Z,-1.50
2022-12-17T02:45:05.003Z,-1.50
2022-12-17T02:49:25.219Z,-1.50
2022-12-17T02:53:45.779Z,-1.50
2022-12-17T02:58:06.460Z,-1.50
2022-12-17T03:02:33.311Z,-1.50
2022-12-17T03:07:00.406Z,-1.50
2022-12-17T03:11:27.189Z,-1.40
2022-12-17T03:15:54.104Z,-1.30
2022-12-17T03:20:21.101Z,-1.40
2022-12-17T03:24:41.755Z,-1.40
2022-12-17T03:29:02.168Z,-1.40
2022-12-17T03:33:22.421Z,-1.40
2022-12-17T03:37:43.150Z,-1.40
2022-12-17T03:42:03.944Z,-1.40
2022-12-17T03:46:24.359Z,-1.30
2022-12-17T03:50:44.480Z,-1.30
2022-12-17T03:55:04.591Z,-1.30
2022-12-17T03:59:24.884Z,-1.30
2022-12-17T04:03:45.042Z,-1.30
2022-12-17T04:08:05.658Z,-1.20
2022-12-17T04:12:25.936Z,-1.20
2022-12-17T04:16:45.911Z,-1.20
2022-12-17T04:21:05.912Z,-1.10
2022-12-17T04:25:26.852Z,-1.10
2022-12-17T04:29:47.370Z,-1.00
2022-12-17T04:34:07.386Z,-1.00
2022-12-17T04:38:27.762Z,-1.00
2022-12-17T04:42:48.148Z,-0.90
2022-12-17T04:47:08.817Z,-0.90
2022-12-17T04:51:29.019Z,-0.90
2022-12-17T04:56:06.126Z,-0.90
2022-12-17T05:00:27.216Z,-0.90
2022-12-17T05:04:47.426Z,-0.80
2022-12-17T05:09:08.071Z,-0.90
2022-12-17T05:13:28.391Z,-0.80
2022-12-17T05:17:49.862Z,-0.80
2022-12-17T05:22:10.475Z,-0.90
2022-12-17T05:26:42.332Z,-0.90
2022-12-17T05:31:02.721Z,-0.80
2022-12-17T05:35:23.497Z,-0.80
2022-12-17T05:39:43.547Z,-0.90
2022-12-17T05:44:03.835Z,-0.80
2022-12-17T05:48:24.170Z,-0.80
2022-12-17T05:52:44.188Z,-0.80
2022-12-17T05:57:04.584Z,-0.70
2022-12-17T06:01:25.471Z,-0.70
2022-12-17T06:05:48.541Z,-0.60
2022-12-17T06:10:08.556Z,-0.50
2022-12-17T06:14:28.877Z,-0.60
2022-12-17T06:18:49.161Z,-0.50
2022-12-17T06:23:27.941Z,-0.50
2022-12-17T06:27:48.059Z,-0.50
2022-12-17T06:32:08.453Z,-0.50
2022-12-17T06:36:28.791Z,-0.50
2022-12-17T06:40:49.171Z,-0.50
2022-12-17T06:45:09.470Z,-0.50
2022-12-17T06:49:30.402Z,-0.60
2022-12-17T06:53:50.832Z,-0.50
2022-12-17T06:58:17.770Z,-0.40
2022-12-17T07:02:38.325Z,-0.40
2022-12-17T07:06:58.762Z,-0.60
2022-12-17T07:11:20.171Z,-0.50
2022-12-17T07:15:40.981Z,-0.50
2022-12-17T07:20:05.137Z,-0.50
2022-12-17T07:24:26.255Z,-0.40
2022-12-17T07:28:46.809Z,-0.40
2022-12-17T07:33:16.549Z,-0.40
2022-12-17T07:37:36.764Z,-0.40
2022-12-17T07:41:57.212Z,-0.30
2022-12-17T07:46:17.276Z,-0.30
2022-12-17T07:50:37.347Z,-0.30
2022-12-17T07:54:59.958Z,-0.30
2022-12-17T07:59:20.232Z,-0.20
2022-12-17T08:03:41.684Z,-0.30
2022-12-17T08:08:02.233Z,-0.20
2022-12-17T08:12:22.658Z,-0.20
2022-12-17T08:16:44.780Z,-0.20
2022-12-17T08:21:05.167Z,-0.20
2022-12-17T08:25:26.158Z,-0.20
2022-12-17T08:29:46.703Z,-0.20
2022-12-17T08:34:08.127Z,-0.20
2022-12-17T08:38:28.774Z,-0.10
2022-12-17T08:42:49.305Z,-0.10
2022-12-17T08:47:09.332Z,-0.10
2022-12-17T08:51:29.574Z,0.00
2022-12-17T08:55:50.158Z,0.00
2022-12-17T09:00:10.205Z,0.10
2022-12-17T09:04:30.663Z,0.20
2022-12-17T09:08:51.060Z,0.10
2022-12-17T09:13:11.610Z,0.30
2022-12-17T09:17:32.081Z,0.30
2022-12-17T09:21:52.296Z,0.40
2022-12-17T09:26:13.794Z,0.40
2022-12-17T09:30:34.474Z,0.50
2022-12-17T09:34:55.054Z,0.40
2022-12-17T09:39:15.637Z,0.50
2022-12-17T09:44:06.203Z,0.30
2022-12-17T09:48:38.634Z,0.30
2022-12-17T09:53:00.007Z,0.40
2022-12-17T09:57:20.101Z,0.50
2022-12-17T10:02:00.019Z,0.50
2022-12-17T10:06:35.379Z,0.60
2022-12-17T10:10:55.668Z,0.60
2022-12-17T10:15:16.457Z,0.60
2022-12-17T10:19:51.392Z,0.40
2022-12-17T10:24:23.015Z,0.50
2022-12-17T10:28:43.753Z,0.40
2022-12-17T10:33:14.184Z,0.40
2022-12-17T10:37:37.940Z,0.40
2022-12-17T10:42:00.722Z,0.30
2022-12-17T10:46:21.498Z,0.40
2022-12-17T10:50:44.867Z,0.40
2022-12-17T10:55:15.448Z,0.40
2022-12-17T10:59:56.188Z,0.30
2022-12-17T11:04:17.465Z,0.50
2022-12-17T11:08:38.269Z,0.60
2022-12-17T11:13:09.737Z,0.70
2022-12-17T11:17:33.744Z,0.80
2022-12-17T11:22:06.939Z,0.80
2022-12-17T11:26:32.838Z,0.90
2022-12-17T11:31:02.030Z,0.90
2022-12-17T11:35:33.168Z,0.90
2022-12-17T11:40:04.247Z,0.90
2022-12-17T11:44:45.161Z,1.00
2022-12-17T11:49:12.405Z,0.90
2022-12-17T11:54:06.203Z,1.00
2022-12-17T11:58:55.376Z,1.00
2022-12-17T12:03:48.553Z,1.00
2022-12-17T12:08:48.363Z,1.10
2022-12-17T12:13:43.413Z,1.30
2022-12-17T12:18:12.852Z,1.30
2022-12-17T12:22:48.900Z,1.40
2022-12-17T12:27:37.734Z,1.50
2022-12-17T12:32:11.757Z,1.50
2022-12-17T12:36:34.709Z,1.60
2022-12-17T12:41:35.725Z,1.50
2022-12-17T12:46:14.577Z,1.50
2022-12-17T12:50:48.733Z,1.40
2022-12-17T12:55:17.889Z,1.40
2022-12-17T12:59:56.042Z,1.50
2022-12-17T13:04:16.995Z,1.40
2022-12-17T13:08:24.683Z,1.40
2022-12-17T13:12:45.299Z,1.50
2022-12-17T13:16:49.026Z,1.20
2022-12-17T13:21:20.873Z,1.30
2022-12-17T13:25:24.775Z,1.20
2022-12-17T13:29:35.814Z,1.10
2022-12-17T13:33:59.876Z,1.00
2022-12-17T13:38:45.660Z,0.90
2022-12-17T13:42:51.647Z,1.00
2022-12-17T13:46:54.270Z,1.00
2022-12-17T13:51:01.995Z,1.00
2022-12-17T13:55:17.565Z,0.80
2022-12-17T13:59:22.517Z,0.60
2022-12-17T14:03:43.178Z,0.70
2022-12-17T14:07:46.647Z,0.70
2022-12-17T14:12:07.736Z,0.50
2022-12-17T14:16:14.193Z,0.50
2022-12-17T14:20:23.862Z,0.40
2022-12-17T14:24:31.101Z,0.60
2022-12-17T14:28:46.015Z,0.50
2022-12-17T14:32:51.997Z,0.50
2022-12-17T14:36:56.730Z,0.50
2022-12-17T14:41:35.951Z,0.40
2022-12-17T14:46:19.826Z,0.40
2022-12-17T14:50:22.830Z,0.30
2022-12-17T14:58:50.880Z,0.30
2022-12-17T15:02:57.611Z,0.40
2022-12-17T15:06:59.711Z,0.40
2022-12-17T15:11:01.762Z,0.30
2022-12-17T15:15:03.985Z,0.30
2022-12-17T15:19:05.836Z,0.20
2022-12-17T15:23:17.522Z,0.30
2022-12-17T15:27:19.380Z,0.20
2022-12-17T15:31:24.959Z,0.00
2022-12-17T15:35:28.644Z,0.10
2022-12-17T15:39:30.501Z,0.00
2022-12-17T15:43:32.258Z,-0.10
2022-12-17T15:47:34.061Z,-0.10
2022-12-17T15:51:35.844Z,-0.10
2022-12-17T15:55:38.256Z,-0.10
2022-12-17T15:59:40.204Z,-0.10
2022-12-17T16:03:42.398Z,-0.10
2022-12-17T16:07:44.480Z,-0.10
2022-12-17T16:11:46.335Z,-0.10
2022-12-17T16:16:04.288Z,-0.20
2022-12-17T16:20:07.229Z,-0.30
2022-12-17T16:24:10.792Z,-0.30
2022-12-17T16:28:14.985Z,-0.40
2022-12-17T16:32:17.218Z,-0.40
2022-12-17T16:36:20.911Z,-0.50
2022-12-17T16:40:22.800Z,-0.70
2022-12-17T16:44:24.659Z,-0.80
2022-12-17T16:48:26.492Z,-0.90
2022-12-17T16:52:28.340Z,-1.00
2022-12-17T16:56:32.830Z,-1.20
2022-12-17T17:00:38.463Z,-1.20
2022-12-17T17:04:40.333Z,-1.30
2022-12-17T17:08:42.235Z,-1.40
2022-12-17T17:12:44.046Z,-1.50
2022-12-17T17:16:46.169Z,-1.50
2022-12-17T17:20:48.051Z,-1.30
2022-12-17T17:24:49.896Z,-1.20
2022-12-17T17:28:52.033Z,-1.10
2022-12-17T17:32:53.835Z,-0.90
2022-12-17T17:36:55.805Z,-0.90
2022-12-17T17:40:58.110Z,-0.80
2022-12-17T17:44:59.898Z,-0.70
2022-12-17T17:49:04.100Z,-0.70
2022-12-17T17:53:06.406Z,-0.70
2022-12-17T17:57:09.431Z,-0.70
2022-12-17T18:01:13.582Z,-0.80
2022-12-17T18:05:16.063Z,-1.00
2022-12-17T18:09:18.040Z,-1.20
2022-12-17T18:13:39.655Z,-1.40
2022-12-17T18:17:42.149Z,-1.50
2022-12-17T18:21:46.891Z,-1.80
2022-12-17T18:25:53.702Z,-2.00
2022-12-17T18:29:55.532Z,-1.90
2022-12-17T18:34:01.050Z,-2.00
2022-12-17T18:38:03.121Z,-2.00
2022-12-17T18:42:23.855Z,-2.10
2022-12-17T18:46:26.508Z,-2.10
2022-12-17T18:50:28.480Z,-2.20
2022-12-17T18:54:31.096Z,-2.30
2022-12-17T18:58:36.240Z,-2.30
2022-12-17T19:02:42.105Z,-2.40
2022-12-17T19:06:45.471Z,-2.50
2022-12-17T19:10:47.629Z,-2.50
2022-12-17T19:14:50.142Z,-2.60
2022-12-17T19:18:54.108Z,-2.60
2022-12-17T19:22:58.270Z,-2.70
2022-12-17T19:27:05.650Z,-2.80
2022-12-17T19:31:09.078Z,-2.90
2022-12-17T19:35:11.280Z,-2.90
2022-12-17T19:39:19.656Z,-3.00
2022-12-17T19:43:23.967Z,-3.10
2022-12-17T19:47:26.023Z,-3.10
2022-12-17T19:51:29.789Z,-3.10
2022-12-17T19:55:31.756Z,-3.20
2022-12-17T19:59:33.714Z,-3.20
2022-12-17T20:03:36.179Z,-3.20
2022-12-17T20:07:39.957Z,-3.30
2022-12-17T20:11:41.867Z,-3.40
2022-12-17T20:15:43.838Z,-3.50
2022-12-17T20:19:45.791Z,-3.60
2022-12-17T20:23:48.892Z,-3.70
2022-12-17T20:27:50.706Z,-3.70
2022-12-17T20:31:53.493Z,-3.80
2022-12-17T20:35:56.271Z,-3.80
2022-12-17T20:39:58.340Z,-3.90
2022-12-17T20:44:13.496Z,-3.90
2022-12-17T20:48:15.687Z,-3.90
2022-12-17T20:52:20.210Z,-4.10
2022-12-17T20:56:25.289Z,-4.10
2022-12-17T21:00:27.635Z,-4.10
2022-12-17T21:04:30.004Z,-4.20
2022-12-17T21:08:34.867Z,-4.30
2022-12-17T21:12:56.678Z,-4.30
2022-12-17T21:17:00.456Z,-4.30
2022-12-17T21:21:11.221Z,-4.40
2022-12-17T21:25:13.625Z,-4.40
2022-12-17T21:29:22.935Z,-4.50
2022-12-17T21:33:32.817Z,-4.60
2022-12-17T21:37:35.171Z,-4.70
2022-12-17T21:41:39.322Z,-4.80
2022-12-17T21:45:45.058Z,-4.80
2022-12-17T21:49:47.068Z,-5.00
2022-12-17T21:53:52.461Z,-5.00
2022-12-17T21:57:56.160Z,-5.00
2022-12-17T22:01:58.384Z,-5.10
2022-12-17T22:06:09.392Z,-5.20
2022-12-17T22:10:39.521Z,-5.20
2022-12-17T22:14:33.772Z,-5.10
2022-12-17T22:18:35.790Z,-5.10
2022-12-17T22:22:37.925Z,-5.10
2022-12-17T22:26:39.990Z,-5.10
2022-12-17T22:31:03.895Z,-5.20
2022-12-17T22:36:30.764Z,-5.00
2022-12-17T22:43:58.023Z,-5.10
2022-12-17T22:44:44.419Z,-5.20
2022-12-17T22:48:15.484Z,-5.40
2022-12-17T22:52:19.047Z,-5.40
2022-12-17T22:56:32.511Z,-5.40
2022-12-17T23:00:44.359Z,-5.30
2022-12-17T23:04:47.525Z,-5.30
2022-12-17T23:08:49.503Z,-5.40
2022-12-17T23:12:52.047Z,-5.20
2022-12-17T23:16:53.925Z,-5.30
2022-12-17T23:20:55.821Z,-5.30
2022-12-17T23:24:57.723Z,-5.40
2022-12-17T23:29:02.170Z,-5.40
2022-12-17T23:33:04.407Z,-5.60
2022-12-17T23:37:06.298Z,-5.50
2022-12-17T23:41:10.726Z,-5.40
2022-12-17T23:45:12.679Z,-5.40
2022-12-17T23:49:15.842Z,-5.60
2022-12-17T23:53:17.747Z,-5.70
2022-12-17T23:57:20.000Z,-5.70
